sensor_id;sensor_type;location;lat;lon;timestamp;P1;durP1;ratioP1;P2;durP2;ratioP2
42906;SDS011;28552;51.146;6.576;2022-07-23T00:00:43;8.35;;;4.10;;
42906;SDS011;28552;51.146;6.576;2022-07-23T00:03:44;8.35;;;4.07;;
42906;SDS011;28552;51.146;6.576;2022-07-23T00:06:45;11.52;;;4.15;;
42906;SDS011;28552;51.146;6.576;2022-07-23T00:09:45;8.88;;;4.07;;
42906;SDS011;28552;51.146;6.576;2022-07-23T00:12:46;11.15;;;4.43;;
42906;SDS011;28552;51.146;6.576;2022-07-23T00:15:46;10.18;;;3.78;;
42906;SDS011;28552;51.146;6.576;2022-07-23T00:18:47;8.93;;;4.05;;
42906;SDS011;28552;51.146;6.576;2022-07-23T00:21:47;10.90;;;3.20;;
42906;SDS011;28552;51.146;6.576;2022-07-23T00:24:48;9.70;;;4.18;;
42906;SDS011;28552;51.146;6.576;2022-07-23T00:27:49;11.63;;;5.22;;
42906;SDS011;28552;51.146;6.576;2022-07-23T00:30:49;11.48;;;4.57;;
42906;SDS011;28552;51.146;6.576;2022-07-23T00:33:50;11.35;;;4.60;;
42906;SDS011;28552;51.146;6.576;2022-07-23T00:36:50;10.05;;;4.80;;
42906;SDS011;28552;51.146;6.576;2022-07-23T00:39:53;10.60;;;4.40;;
42906;SDS011;28552;51.146;6.576;2022-07-23T00:42:54;7.63;;;3.90;;
42906;SDS011;28552;51.146;6.576;2022-07-23T00:45:54;12.30;;;5.05;;
42906;SDS011;28552;51.146;6.576;2022-07-23T00:48:55;9.18;;;4.15;;
42906;SDS011;28552;51.146;6.576;2022-07-23T00:51:56;8.68;;;4.55;;
42906;SDS011;28552;51.146;6.576;2022-07-23T00:54:57;8.68;;;5.00;;
42906;SDS011;28552;51.146;6.576;2022-07-23T00:57:58;10.00;;;4.13;;
42906;SDS011;28552;51.146;6.576;2022-07-23T01:00:59;10.68;;;4.70;;
42906;SDS011;28552;51.146;6.576;2022-07-23T01:03:59;11.75;;;5.22;;
42906;SDS011;28552;51.146;6.576;2022-07-23T01:07:00;10.98;;;5.25;;
42906;SDS011;28552;51.146;6.576;2022-07-23T01:10:01;11.07;;;5.25;;
42906;SDS011;28552;51.146;6.576;2022-07-23T01:13:04;12.07;;;4.90;;
42906;SDS011;28552;51.146;6.576;2022-07-23T01:16:07;12.50;;;5.70;;
42906;SDS011;28552;51.146;6.576;2022-07-23T01:19:08;10.63;;;5.82;;
42906;SDS011;28552;51.146;6.576;2022-07-23T01:22:09;12.35;;;5.53;;
42906;SDS011;28552;51.146;6.576;2022-07-23T01:25:10;11.40;;;5.47;;
42906;SDS011;28552;51.146;6.576;2022-07-23T01:28:11;12.82;;;5.90;;
42906;SDS011;28552;51.146;6.576;2022-07-23T01:31:11;13.60;;;6.53;;
42906;SDS011;28552;51.146;6.576;2022-07-23T01:34:12;10.88;;;5.13;;
42906;SDS011;28552;51.146;6.576;2022-07-23T01:37:13;11.05;;;5.80;;
42906;SDS011;28552;51.146;6.576;2022-07-23T01:40:14;9.48;;;4.93;;
42906;SDS011;28552;51.146;6.576;2022-07-23T01:43:15;9.02;;;4.75;;
42906;SDS011;28552;51.146;6.576;2022-07-23T01:46:15;10.52;;;5.20;;
42906;SDS011;28552;51.146;6.576;2022-07-23T01:49:16;10.57;;;5.25;;
42906;SDS011;28552;51.146;6.576;2022-07-23T01:52:17;11.27;;;5.05;;
42906;SDS011;28552;51.146;6.576;2022-07-23T01:55:17;9.48;;;4.68;;
42906;SDS011;28552;51.146;6.576;2022-07-23T01:58:18;8.02;;;3.85;;
42906;SDS011;28552;51.146;6.576;2022-07-23T02:01:18;7.72;;;4.00;;
42906;SDS011;28552;51.146;6.576;2022-07-23T02:04:19;7.72;;;4.00;;
42906;SDS011;28552;51.146;6.576;2022-07-23T02:07:20;11.80;;;4.85;;
42906;SDS011;28552;51.146;6.576;2022-07-23T02:10:21;12.30;;;4.90;;
42906;SDS011;28552;51.146;6.576;2022-07-23T02:13:22;8.02;;;4.28;;
42906;SDS011;28552;51.146;6.576;2022-07-23T02:16:23;8.50;;;4.28;;
42906;SDS011;28552;51.146;6.576;2022-07-23T02:19:23;6.53;;;3.35;;
42906;SDS011;28552;51.146;6.576;2022-07-23T02:22:24;10.35;;;4.43;;
42906;SDS011;28552;51.146;6.576;2022-07-23T02:25:24;9.80;;;5.00;;
42906;SDS011;28552;51.146;6.576;2022-07-23T02:28:25;7.88;;;4.18;;
42906;SDS011;28552;51.146;6.576;2022-07-23T02:31:25;7.15;;;3.65;;
42906;SDS011;28552;51.146;6.576;2022-07-23T02:34:26;9.77;;;4.43;;
42906;SDS011;28552;51.146;6.576;2022-07-23T02:37:26;9.23;;;4.90;;
42906;SDS011;28552;51.146;6.576;2022-07-23T02:40:27;8.77;;;4.32;;
42906;SDS011;28552;51.146;6.576;2022-07-23T02:43:28;8.43;;;4.93;;
42906;SDS011;28552;51.146;6.576;2022-07-23T02:46:28;9.77;;;4.15;;
42906;SDS011;28552;51.146;6.576;2022-07-23T02:49:29;8.65;;;4.45;;
42906;SDS011;28552;51.146;6.576;2022-07-23T02:52:29;8.93;;;4.82;;
42906;SDS011;28552;51.146;6.576;2022-07-23T02:55:30;9.48;;;4.80;;
42906;SDS011;28552;51.146;6.576;2022-07-23T02:58:31;10.48;;;5.45;;
42906;SDS011;28552;51.146;6.576;2022-07-23T03:01:31;8.68;;;4.47;;
42906;SDS011;28552;51.146;6.576;2022-07-23T03:04:32;9.98;;;4.15;;
42906;SDS011;28552;51.146;6.576;2022-07-23T03:07:33;8.65;;;3.97;;
42906;SDS011;28552;51.146;6.576;2022-07-23T03:10:34;7.82;;;4.22;;
42906;SDS011;28552;51.146;6.576;2022-07-23T03:13:34;6.88;;;3.63;;
42906;SDS011;28552;51.146;6.576;2022-07-23T03:16:35;8.68;;;4.00;;
42906;SDS011;28552;51.146;6.576;2022-07-23T03:19:36;8.48;;;4.47;;
42906;SDS011;28552;51.146;6.576;2022-07-23T03:22:37;8.55;;;4.40;;
42906;SDS011;28552;51.146;6.576;2022-07-23T03:25:38;7.32;;;4.00;;
42906;SDS011;28552;51.146;6.576;2022-07-23T03:28:38;11.90;;;4.50;;
42906;SDS011;28552;51.146;6.576;2022-07-23T03:31:39;7.07;;;3.90;;
42906;SDS011;28552;51.146;6.576;2022-07-23T03:34:39;6.82;;;3.92;;
42906;SDS011;28552;51.146;6.576;2022-07-23T03:37:40;7.05;;;4.32;;
42906;SDS011;28552;51.146;6.576;2022-07-23T03:40:40;6.22;;;3.67;;
42906;SDS011;28552;51.146;6.576;2022-07-23T03:43:41;6.85;;;3.90;;
42906;SDS011;28552;51.146;6.576;2022-07-23T03:46:42;7.22;;;3.60;;
42906;SDS011;28552;51.146;6.576;2022-07-23T03:49:42;6.47;;;3.60;;
42906;SDS011;28552;51.146;6.576;2022-07-23T03:52:43;6.05;;;3.78;;
42906;SDS011;28552;51.146;6.576;2022-07-23T03:55:43;6.22;;;3.60;;
42906;SDS011;28552;51.146;6.576;2022-07-23T03:58:44;7.07;;;3.80;;
42906;SDS011;28552;51.146;6.576;2022-07-23T04:01:44;7.90;;;4.30;;
42906;SDS011;28552;51.146;6.576;2022-07-23T04:04:45;7.20;;;3.95;;
42906;SDS011;28552;51.146;6.576;2022-07-23T04:07:46;7.13;;;3.90;;
42906;SDS011;28552;51.146;6.576;2022-07-23T04:10:47;8.35;;;3.70;;
42906;SDS011;28552;51.146;6.576;2022-07-23T04:13:47;9.35;;;3.97;;
42906;SDS011;28552;51.146;6.576;2022-07-23T04:16:48;5.30;;;3.15;;
42906;SDS011;28552;51.146;6.576;2022-07-23T04:19:48;6.63;;;3.65;;
42906;SDS011;28552;51.146;6.576;2022-07-23T04:22:49;7.00;;;3.65;;
42906;SDS011;28552;51.146;6.576;2022-07-23T04:25:49;8.38;;;3.45;;
42906;SDS011;28552;51.146;6.576;2022-07-23T04:28:51;6.57;;;3.67;;
42906;SDS011;28552;51.146;6.576;2022-07-23T04:31:51;6.72;;;3.58;;
42906;SDS011;28552;51.146;6.576;2022-07-23T04:34:52;6.82;;;3.70;;
42906;SDS011;28552;51.146;6.576;2022-07-23T04:37:52;10.38;;;4.43;;
42906;SDS011;28552;51.146;6.576;2022-07-23T04:40:53;7.32;;;3.90;;
42906;SDS011;28552;51.146;6.576;2022-07-23T04:43:53;12.35;;;4.20;;
42906;SDS011;28552;51.146;6.576;2022-07-23T04:46:54;8.45;;;4.32;;
42906;SDS011;28552;51.146;6.576;2022-07-23T04:49:54;8.85;;;4.20;;
42906;SDS011;28552;51.146;6.576;2022-07-23T04:52:55;6.47;;;3.58;;
42906;SDS011;28552;51.146;6.576;2022-07-23T04:55:55;8.40;;;3.97;;
42906;SDS011;28552;51.146;6.576;2022-07-23T04:58:56;9.27;;;4.47;;
42906;SDS011;28552;51.146;6.576;2022-07-23T05:01:57;10.45;;;4.90;;
42906;SDS011;28552;51.146;6.576;2022-07-23T05:04:57;9.65;;;4.93;;
42906;SDS011;28552;51.146;6.576;2022-07-23T05:07:58;12.40;;;6.10;;
42906;SDS011;28552;51.146;6.576;2022-07-23T05:10:58;9.50;;;5.20;;
42906;SDS011;28552;51.146;6.576;2022-07-23T05:13:59;10.85;;;5.10;;
42906;SDS011;28552;51.146;6.576;2022-07-23T05:16:59;9.75;;;5.15;;
42906;SDS011;28552;51.146;6.576;2022-07-23T05:20:00;10.98;;;5.15;;
42906;SDS011;28552;51.146;6.576;2022-07-23T05:23:00;11.23;;;5.63;;
42906;SDS011;28552;51.146;6.576;2022-07-23T05:26:01;11.10;;;5.55;;
42906;SDS011;28552;51.146;6.576;2022-07-23T05:29:02;12.65;;;5.45;;
42906;SDS011;28552;51.146;6.576;2022-07-23T05:32:02;14.48;;;5.78;;
42906;SDS011;28552;51.146;6.576;2022-07-23T05:35:04;12.10;;;5.85;;
42906;SDS011;28552;51.146;6.576;2022-07-23T05:38:05;9.88;;;5.25;;
42906;SDS011;28552;51.146;6.576;2022-07-23T05:41:06;15.75;;;6.72;;
42906;SDS011;28552;51.146;6.576;2022-07-23T05:44:06;11.05;;;5.20;;
42906;SDS011;28552;51.146;6.576;2022-07-23T05:47:07;13.57;;;6.47;;
42906;SDS011;28552;51.146;6.576;2022-07-23T05:50:08;15.57;;;6.22;;
42906;SDS011;28552;51.146;6.576;2022-07-23T05:53:08;11.55;;;5.50;;
42906;SDS011;28552;51.146;6.576;2022-07-23T05:56:09;13.38;;;6.68;;
42906;SDS011;28552;51.146;6.576;2022-07-23T05:59:10;15.93;;;6.88;;
42906;SDS011;28552;51.146;6.576;2022-07-23T06:02:12;13.27;;;5.70;;
42906;SDS011;28552;51.146;6.576;2022-07-23T06:05:13;15.20;;;5.78;;
42906;SDS011;28552;51.146;6.576;2022-07-23T06:08:14;12.52;;;5.45;;
42906;SDS011;28552;51.146;6.576;2022-07-23T06:11:14;14.10;;;6.05;;
42906;SDS011;28552;51.146;6.576;2022-07-23T06:14:15;14.35;;;6.70;;
42906;SDS011;28552;51.146;6.576;2022-07-23T06:17:15;13.25;;;6.57;;
42906;SDS011;28552;51.146;6.576;2022-07-23T06:20:16;14.38;;;6.30;;
42906;SDS011;28552;51.146;6.576;2022-07-23T06:23:17;18.70;;;9.55;;
42906;SDS011;28552;51.146;6.576;2022-07-23T06:26:17;15.15;;;7.53;;
42906;SDS011;28552;51.146;6.576;2022-07-23T06:29:18;14.07;;;6.70;;
42906;SDS011;28552;51.146;6.576;2022-07-23T06:32:19;20.05;;;7.57;;
42906;SDS011;28552;51.146;6.576;2022-07-23T06:35:19;15.13;;;6.97;;
42906;SDS011;28552;51.146;6.576;2022-07-23T06:38:20;15.77;;;7.30;;
42906;SDS011;28552;51.146;6.576;2022-07-23T06:41:20;17.23;;;7.40;;
42906;SDS011;28552;51.146;6.576;2022-07-23T06:44:22;16.27;;;7.38;;
42906;SDS011;28552;51.146;6.576;2022-07-23T06:47:23;18.73;;;7.55;;
42906;SDS011;28552;51.146;6.576;2022-07-23T06:50:23;19.02;;;7.70;;
42906;SDS011;28552;51.146;6.576;2022-07-23T06:53:24;16.27;;;7.55;;
42906;SDS011;28552;51.146;6.576;2022-07-23T06:56:24;18.63;;;7.72;;
42906;SDS011;28552;51.146;6.576;2022-07-23T06:59:25;18.48;;;7.13;;
42906;SDS011;28552;51.146;6.576;2022-07-23T07:02:26;17.10;;;7.88;;
42906;SDS011;28552;51.146;6.576;2022-07-23T07:05:26;23.63;;;9.98;;
42906;SDS011;28552;51.146;6.576;2022-07-23T07:08:27;18.13;;;8.45;;
42906;SDS011;28552;51.146;6.576;2022-07-23T07:11:27;19.05;;;8.48;;
42906;SDS011;28552;51.146;6.576;2022-07-23T07:14:28;24.27;;;9.55;;
42906;SDS011;28552;51.146;6.576;2022-07-23T07:17:29;16.80;;;8.50;;
42906;SDS011;28552;51.146;6.576;2022-07-23T07:20:29;19.27;;;8.73;;
42906;SDS011;28552;51.146;6.576;2022-07-23T07:23:30;23.35;;;8.38;;
42906;SDS011;28552;51.146;6.576;2022-07-23T07:26:30;19.77;;;8.88;;
42906;SDS011;28552;51.146;6.576;2022-07-23T07:29:31;20.85;;;8.88;;
42906;SDS011;28552;51.146;6.576;2022-07-23T07:32:32;21.70;;;10.30;;
42906;SDS011;28552;51.146;6.576;2022-07-23T07:35:32;20.55;;;8.35;;
42906;SDS011;28552;51.146;6.576;2022-07-23T07:38:33;19.88;;;9.52;;
42906;SDS011;28552;51.146;6.576;2022-07-23T07:41:34;21.27;;;9.02;;
42906;SDS011;28552;51.146;6.576;2022-07-23T07:44:34;17.83;;;8.25;;
42906;SDS011;28552;51.146;6.576;2022-07-23T07:47:35;21.42;;;8.77;;
42906;SDS011;28552;51.146;6.576;2022-07-23T07:50:35;18.90;;;8.43;;
42906;SDS011;28552;51.146;6.576;2022-07-23T07:53:36;18.95;;;8.02;;
42906;SDS011;28552;51.146;6.576;2022-07-23T07:56:36;20.25;;;7.80;;
42906;SDS011;28552;51.146;6.576;2022-07-23T07:59:37;18.00;;;7.35;;
42906;SDS011;28552;51.146;6.576;2022-07-23T08:02:40;17.23;;;7.47;;
42906;SDS011;28552;51.146;6.576;2022-07-23T08:05:40;17.65;;;7.38;;
42906;SDS011;28552;51.146;6.576;2022-07-23T08:08:41;16.67;;;6.82;;
42906;SDS011;28552;51.146;6.576;2022-07-23T08:11:41;11.27;;;5.63;;
42906;SDS011;28552;51.146;6.576;2022-07-23T08:14:42;13.50;;;4.97;;
42906;SDS011;28552;51.146;6.576;2022-07-23T08:17:43;13.32;;;5.25;;
42906;SDS011;28552;51.146;6.576;2022-07-23T08:20:44;12.40;;;5.35;;
42906;SDS011;28552;51.146;6.576;2022-07-23T08:23:45;12.63;;;5.45;;
42906;SDS011;28552;51.146;6.576;2022-07-23T08:26:45;12.95;;;5.68;;
42906;SDS011;28552;51.146;6.576;2022-07-23T08:29:46;11.40;;;4.72;;
42906;SDS011;28552;51.146;6.576;2022-07-23T08:32:47;8.40;;;4.75;;
42906;SDS011;28552;51.146;6.576;2022-07-23T08:35:49;10.32;;;5.15;;
42906;SDS011;28552;51.146;6.576;2022-07-23T08:38:50;11.70;;;5.38;;
42906;SDS011;28552;51.146;6.576;2022-07-23T08:41:51;11.27;;;5.68;;
42906;SDS011;28552;51.146;6.576;2022-07-23T08:44:52;13.07;;;6.03;;
42906;SDS011;28552;51.146;6.576;2022-07-23T08:47:53;11.90;;;5.40;;
42906;SDS011;28552;51.146;6.576;2022-07-23T08:50:56;10.82;;;5.05;;
42906;SDS011;28552;51.146;6.576;2022-07-23T08:53:58;14.23;;;5.72;;
42906;SDS011;28552;51.146;6.576;2022-07-23T08:56:59;11.93;;;5.65;;
42906;SDS011;28552;51.146;6.576;2022-07-23T09:00:00;10.93;;;5.78;;
42906;SDS011;28552;51.146;6.576;2022-07-23T09:03:02;8.60;;;4.60;;
42906;SDS011;28552;51.146;6.576;2022-07-23T09:06:03;9.13;;;4.70;;
42906;SDS011;28552;51.146;6.576;2022-07-23T09:09:15;8.18;;;4.05;;
42906;SDS011;28552;51.146;6.576;2022-07-23T09:12:17;11.32;;;4.75;;
42906;SDS011;28552;51.146;6.576;2022-07-23T09:15:18;9.15;;;4.38;;
42906;SDS011;28552;51.146;6.576;2022-07-23T09:18:19;6.50;;;3.30;;
42906;SDS011;28552;51.146;6.576;2022-07-23T09:21:29;8.75;;;3.85;;
42906;SDS011;28552;51.146;6.576;2022-07-23T09:24:32;9.68;;;4.07;;
42906;SDS011;28552;51.146;6.576;2022-07-23T09:30:54;7.03;;;3.55;;
42906;SDS011;28552;51.146;6.576;2022-07-23T09:34:01;7.82;;;3.40;;
42906;SDS011;28552;51.146;6.576;2022-07-23T09:37:09;9.60;;;3.50;;
42906;SDS011;28552;51.146;6.576;2022-07-23T09:40:12;7.05;;;3.22;;
42906;SDS011;28552;51.146;6.576;2022-07-23T09:43:26;8.40;;;3.30;;
42906;SDS011;28552;51.146;6.576;2022-07-23T09:46:28;6.15;;;2.90;;
42906;SDS011;28552;51.146;6.576;2022-07-23T09:49:28;8.15;;;3.45;;
42906;SDS011;28552;51.146;6.576;2022-07-23T09:52:31;7.30;;;3.28;;
42906;SDS011;28552;51.146;6.576;2022-07-23T09:55:33;4.90;;;2.22;;
42906;SDS011;28552;51.146;6.576;2022-07-23T09:58:37;5.13;;;2.45;;
42906;SDS011;28552;51.146;6.576;2022-07-23T10:01:48;6.53;;;3.15;;
42906;SDS011;28552;51.146;6.576;2022-07-23T10:04:52;6.15;;;2.63;;
42906;SDS011;28552;51.146;6.576;2022-07-23T10:07:54;4.78;;;2.13;;
42906;SDS011;28552;51.146;6.576;2022-07-23T10:10:56;4.55;;;2.08;;
42906;SDS011;28552;51.146;6.576;2022-07-23T10:13:58;5.28;;;1.88;;
42906;SDS011;28552;51.146;6.576;2022-07-23T10:17:02;5.40;;;2.35;;
42906;SDS011;28552;51.146;6.576;2022-07-23T10:20:04;4.43;;;1.60;;
42906;SDS011;28552;51.146;6.576;2022-07-23T10:26:24;4.78;;;2.13;;
42906;SDS011;28552;51.146;6.576;2022-07-23T10:32:56;5.53;;;2.00;;
42906;SDS011;28552;51.146;6.576;2022-07-23T10:36:20;4.97;;;2.00;;
42906;SDS011;28552;51.146;6.576;2022-07-23T10:39:30;4.95;;;1.92;;
42906;SDS011;28552;51.146;6.576;2022-07-23T10:42:33;4.30;;;1.77;;
42906;SDS011;28552;51.146;6.576;2022-07-23T10:45:35;3.83;;;1.70;;
42906;SDS011;28552;51.146;6.576;2022-07-23T10:48:37;3.88;;;1.58;;
42906;SDS011;28552;51.146;6.576;2022-07-23T10:51:38;3.95;;;1.50;;
42906;SDS011;28552;51.146;6.576;2022-07-23T10:54:39;6.97;;;1.85;;
42906;SDS011;28552;51.146;6.576;2022-07-23T10:57:47;3.70;;;1.45;;
42906;SDS011;28552;51.146;6.576;2022-07-23T11:00:49;5.50;;;1.50;;
42906;SDS011;28552;51.146;6.576;2022-07-23T11:03:57;3.92;;;1.60;;
42906;SDS011;28552;51.146;6.576;2022-07-23T11:09:59;4.05;;;1.30;;
42906;SDS011;28552;51.146;6.576;2022-07-23T11:16:45;3.47;;;1.60;;
42906;SDS011;28552;51.146;6.576;2022-07-23T11:23:15;4.38;;;1.45;;
42906;SDS011;28552;51.146;6.576;2022-07-23T11:26:40;6.03;;;1.55;;
42906;SDS011;28552;51.146;6.576;2022-07-23T11:29:44;4.47;;;1.85;;
42906;SDS011;28552;51.146;6.576;2022-07-23T11:32:45;4.22;;;1.40;;
42906;SDS011;28552;51.146;6.576;2022-07-23T11:35:47;3.10;;;1.33;;
42906;SDS011;28552;51.146;6.576;2022-07-23T11:38:59;4.28;;;1.83;;
42906;SDS011;28552;51.146;6.576;2022-07-23T11:42:01;7.47;;;1.45;;
42906;SDS011;28552;51.146;6.576;2022-07-23T11:45:05;4.03;;;1.48;;
42906;SDS011;28552;51.146;6.576;2022-07-23T11:48:09;3.75;;;1.63;;
42906;SDS011;28552;51.146;6.576;2022-07-23T11:51:24;3.70;;;1.48;;
42906;SDS011;28552;51.146;6.576;2022-07-23T11:54:26;2.58;;;1.23;;
42906;SDS011;28552;51.146;6.576;2022-07-23T11:57:29;2.63;;;1.08;;
42906;SDS011;28552;51.146;6.576;2022-07-23T12:00:31;3.55;;;1.50;;
42906;SDS011;28552;51.146;6.576;2022-07-23T12:03:32;4.32;;;1.67;;
42906;SDS011;28552;51.146;6.576;2022-07-23T12:06:37;2.90;;;1.30;;
42906;SDS011;28552;51.146;6.576;2022-07-23T12:09:38;3.63;;;1.60;;
42906;SDS011;28552;51.146;6.576;2022-07-23T12:12:46;3.80;;;1.45;;
42906;SDS011;28552;51.146;6.576;2022-07-23T12:15:50;4.18;;;1.73;;
42906;SDS011;28552;51.146;6.576;2022-07-23T12:18:52;4.03;;;1.63;;
42906;SDS011;28552;51.146;6.576;2022-07-23T12:21:53;2.78;;;1.30;;
42906;SDS011;28552;51.146;6.576;2022-07-23T12:24:58;2.25;;;1.10;;
42906;SDS011;28552;51.146;6.576;2022-07-23T12:28:08;3.58;;;1.50;;
42906;SDS011;28552;51.146;6.576;2022-07-23T12:31:11;4.35;;;1.50;;
42906;SDS011;28552;51.146;6.576;2022-07-23T12:34:13;2.03;;;1.10;;
42906;SDS011;28552;51.146;6.576;2022-07-23T12:40:33;2.42;;;1.13;;
42906;SDS011;28552;51.146;6.576;2022-07-23T12:43:36;2.53;;;1.20;;
42906;SDS011;28552;51.146;6.576;2022-07-23T12:46:40;3.08;;;1.30;;
42906;SDS011;28552;51.146;6.576;2022-07-23T12:49:40;2.67;;;1.27;;
42906;SDS011;28552;51.146;6.576;2022-07-23T12:52:41;2.75;;;1.05;;
42906;SDS011;28552;51.146;6.576;2022-07-23T12:55:43;3.05;;;1.27;;
42906;SDS011;28552;51.146;6.576;2022-07-23T12:58:47;3.28;;;1.48;;
42906;SDS011;28552;51.146;6.576;2022-07-23T13:01:56;4.97;;;1.50;;
42906;SDS011;28552;51.146;6.576;2022-07-23T13:04:58;4.40;;;1.58;;
42906;SDS011;28552;51.146;6.576;2022-07-23T13:07:59;2.85;;;1.20;;
42906;SDS011;28552;51.146;6.576;2022-07-23T13:11:02;3.30;;;1.40;;
42906;SDS011;28552;51.146;6.576;2022-07-23T13:14:04;3.40;;;1.50;;
42906;SDS011;28552;51.146;6.576;2022-07-23T13:17:07;3.70;;;1.40;;
42906;SDS011;28552;51.146;6.576;2022-07-23T13:20:07;2.45;;;1.00;;
42906;SDS011;28552;51.146;6.576;2022-07-23T13:23:08;5.00;;;1.42;;
42906;SDS011;28552;51.146;6.576;2022-07-23T13:26:09;3.85;;;1.30;;
42906;SDS011;28552;51.146;6.576;2022-07-23T13:29:09;5.57;;;1.60;;
42906;SDS011;28552;51.146;6.576;2022-07-23T13:32:11;4.63;;;1.50;;
42906;SDS011;28552;51.146;6.576;2022-07-23T13:35:12;3.65;;;1.55;;
42906;SDS011;28552;51.146;6.576;2022-07-23T13:38:13;3.60;;;1.48;;
42906;SDS011;28552;51.146;6.576;2022-07-23T13:41:13;2.22;;;1.00;;
42906;SDS011;28552;51.146;6.576;2022-07-23T13:44:17;2.58;;;1.13;;
42906;SDS011;28552;51.146;6.576;2022-07-23T13:47:18;3.38;;;1.40;;
42906;SDS011;28552;51.146;6.576;2022-07-23T13:50:19;4.70;;;1.25;;
42906;SDS011;28552;51.146;6.576;2022-07-23T13:53:21;3.15;;;1.52;;
42906;SDS011;28552;51.146;6.576;2022-07-23T13:56:23;3.50;;;1.63;;
42906;SDS011;28552;51.146;6.576;2022-07-23T13:59:23;3.05;;;1.25;;
42906;SDS011;28552;51.146;6.576;2022-07-23T14:02:24;4.35;;;1.70;;
42906;SDS011;28552;51.146;6.576;2022-07-23T14:05:25;4.07;;;1.50;;
42906;SDS011;28552;51.146;6.576;2022-07-23T14:08:26;4.72;;;1.73;;
42906;SDS011;28552;51.146;6.576;2022-07-23T14:11:26;5.45;;;1.83;;
42906;SDS011;28552;51.146;6.576;2022-07-23T14:14:28;3.78;;;1.63;;
42906;SDS011;28552;51.146;6.576;2022-07-23T14:17:28;3.83;;;1.58;;
42906;SDS011;28552;51.146;6.576;2022-07-23T14:20:29;4.15;;;1.65;;
42906;SDS011;28552;51.146;6.576;2022-07-23T14:23:29;3.08;;;1.38;;
42906;SDS011;28552;51.146;6.576;2022-07-23T14:26:30;4.75;;;1.42;;
42906;SDS011;28552;51.146;6.576;2022-07-23T14:29:30;4.95;;;1.40;;
42906;SDS011;28552;51.146;6.576;2022-07-23T14:32:32;2.47;;;1.17;;
42906;SDS011;28552;51.146;6.576;2022-07-23T14:35:32;3.10;;;1.20;;
42906;SDS011;28552;51.146;6.576;2022-07-23T14:38:33;2.72;;;1.10;;
42906;SDS011;28552;51.146;6.576;2022-07-23T14:41:34;3.20;;;1.60;;
42906;SDS011;28552;51.146;6.576;2022-07-23T14:44:36;4.18;;;1.85;;
42906;SDS011;28552;51.146;6.576;2022-07-23T14:47:36;3.08;;;1.30;;
42906;SDS011;28552;51.146;6.576;2022-07-23T14:50:37;2.92;;;1.20;;
42906;SDS011;28552;51.146;6.576;2022-07-23T14:53:37;2.83;;;1.30;;
42906;SDS011;28552;51.146;6.576;2022-07-23T14:56:38;3.45;;;1.35;;
42906;SDS011;28552;51.146;6.576;2022-07-23T14:59:39;3.03;;;1.45;;
42906;SDS011;28552;51.146;6.576;2022-07-23T15:02:42;3.38;;;1.33;;
42906;SDS011;28552;51.146;6.576;2022-07-23T15:05:42;3.35;;;1.08;;
42906;SDS011;28552;51.146;6.576;2022-07-23T15:08:43;2.60;;;1.25;;
42906;SDS011;28552;51.146;6.576;2022-07-23T15:11:44;3.25;;;1.50;;
42906;SDS011;28552;51.146;6.576;2022-07-23T15:14:44;3.08;;;1.30;;
42906;SDS011;28552;51.146;6.576;2022-07-23T15:17:45;3.92;;;1.42;;
42906;SDS011;28552;51.146;6.576;2022-07-23T15:20:46;4.13;;;1.77;;
42906;SDS011;28552;51.146;6.576;2022-07-23T15:23:47;3.30;;;1.63;;
42906;SDS011;28552;51.146;6.576;2022-07-23T15:26:48;3.22;;;1.40;;
42906;SDS011;28552;51.146;6.576;2022-07-23T15:29:49;3.67;;;1.67;;
42906;SDS011;28552;51.146;6.576;2022-07-23T15:32:49;3.50;;;1.30;;
42906;SDS011;28552;51.146;6.576;2022-07-23T15:35:50;3.38;;;1.45;;
42906;SDS011;28552;51.146;6.576;2022-07-23T15:38:52;4.65;;;1.50;;
42906;SDS011;28552;51.146;6.576;2022-07-23T15:41:53;3.42;;;1.40;;
42906;SDS011;28552;51.146;6.576;2022-07-23T15:44:53;3.15;;;1.40;;
42906;SDS011;28552;51.146;6.576;2022-07-23T15:47:54;3.60;;;1.60;;
42906;SDS011;28552;51.146;6.576;2022-07-23T15:50:55;4.20;;;1.60;;
42906;SDS011;28552;51.146;6.576;2022-07-23T15:53:56;2.97;;;1.30;;
42906;SDS011;28552;51.146;6.576;2022-07-23T15:56:56;3.05;;;1.55;;
42906;SDS011;28552;51.146;6.576;2022-07-23T15:59:57;3.75;;;1.20;;
42906;SDS011;28552;51.146;6.576;2022-07-23T16:02:57;3.28;;;1.27;;
42906;SDS011;28552;51.146;6.576;2022-07-23T16:05:58;3.33;;;1.52;;
42906;SDS011;28552;51.146;6.576;2022-07-23T16:08:59;4.05;;;1.30;;
42906;SDS011;28552;51.146;6.576;2022-07-23T16:12:02;4.03;;;1.52;;
42906;SDS011;28552;51.146;6.576;2022-07-23T16:15:03;3.30;;;1.50;;
42906;SDS011;28552;51.146;6.576;2022-07-23T16:18:04;3.58;;;1.63;;
42906;SDS011;28552;51.146;6.576;2022-07-23T16:21:05;4.07;;;1.40;;
42906;SDS011;28552;51.146;6.576;2022-07-23T16:24:05;3.40;;;1.60;;
42906;SDS011;28552;51.146;6.576;2022-07-23T16:27:06;2.53;;;1.13;;
42906;SDS011;28552;51.146;6.576;2022-07-23T16:30:08;3.97;;;1.40;;
42906;SDS011;28552;51.146;6.576;2022-07-23T16:33:10;3.67;;;1.10;;
42906;SDS011;28552;51.146;6.576;2022-07-23T16:36:11;3.60;;;1.63;;
42906;SDS011;28552;51.146;6.576;2022-07-23T16:39:11;4.57;;;1.58;;
42906;SDS011;28552;51.146;6.576;2022-07-23T16:42:12;3.97;;;1.50;;
42906;SDS011;28552;51.146;6.576;2022-07-23T16:45:12;3.30;;;1.60;;
42906;SDS011;28552;51.146;6.576;2022-07-23T16:48:13;3.78;;;1.55;;
42906;SDS011;28552;51.146;6.576;2022-07-23T16:51:14;3.28;;;1.40;;
42906;SDS011;28552;51.146;6.576;2022-07-23T16:54:15;3.35;;;1.42;;
42906;SDS011;28552;51.146;6.576;2022-07-23T16:57:16;3.72;;;1.55;;
42906;SDS011;28552;51.146;6.576;2022-07-23T17:00:17;5.22;;;1.80;;
42906;SDS011;28552;51.146;6.576;2022-07-23T17:03:17;3.08;;;1.50;;
42906;SDS011;28552;51.146;6.576;2022-07-23T17:06:18;4.50;;;1.85;;
42906;SDS011;28552;51.146;6.576;2022-07-23T17:09:19;3.40;;;1.55;;
42906;SDS011;28552;51.146;6.576;2022-07-23T17:12:19;3.22;;;1.40;;
42906;SDS011;28552;51.146;6.576;2022-07-23T17:15:20;2.83;;;1.40;;
42906;SDS011;28552;51.146;6.576;2022-07-23T17:18:21;2.65;;;1.35;;
42906;SDS011;28552;51.146;6.576;2022-07-23T17:21:22;5.47;;;1.52;;
42906;SDS011;28552;51.146;6.576;2022-07-23T17:24:23;4.88;;;1.73;;
42906;SDS011;28552;51.146;6.576;2022-07-23T17:27:24;3.28;;;1.58;;
42906;SDS011;28552;51.146;6.576;2022-07-23T17:30:25;3.63;;;1.45;;
42906;SDS011;28552;51.146;6.576;2022-07-23T17:33:26;3.65;;;1.50;;
42906;SDS011;28552;51.146;6.576;2022-07-23T17:36:26;4.03;;;1.45;;
42906;SDS011;28552;51.146;6.576;2022-07-23T17:39:27;2.92;;;1.45;;
42906;SDS011;28552;51.146;6.576;2022-07-23T17:42:28;3.20;;;1.80;;
42906;SDS011;28552;51.146;6.576;2022-07-23T17:45:28;3.92;;;1.73;;
42906;SDS011;28552;51.146;6.576;2022-07-23T17:48:29;4.03;;;1.55;;
42906;SDS011;28552;51.146;6.576;2022-07-23T17:51:29;3.47;;;1.52;;
42906;SDS011;28552;51.146;6.576;2022-07-23T17:54:30;3.60;;;1.40;;
42906;SDS011;28552;51.146;6.576;2022-07-23T17:57:32;4.32;;;1.90;;
42906;SDS011;28552;51.146;6.576;2022-07-23T18:00:33;3.20;;;1.40;;
42906;SDS011;28552;51.146;6.576;2022-07-23T18:03:37;4.55;;;1.67;;
42906;SDS011;28552;51.146;6.576;2022-07-23T18:06:39;4.53;;;1.80;;
42906;SDS011;28552;51.146;6.576;2022-07-23T18:09:40;3.25;;;1.70;;
42906;SDS011;28552;51.146;6.576;2022-07-23T18:12:42;3.45;;;1.50;;
42906;SDS011;28552;51.146;6.576;2022-07-23T18:15:43;3.70;;;1.50;;
42906;SDS011;28552;51.146;6.576;2022-07-23T18:18:43;3.17;;;1.50;;
42906;SDS011;28552;51.146;6.576;2022-07-23T18:21:44;3.92;;;1.58;;
42906;SDS011;28552;51.146;6.576;2022-07-23T18:24:44;4.05;;;1.90;;
42906;SDS011;28552;51.146;6.576;2022-07-23T18:27:45;3.63;;;1.50;;
42906;SDS011;28552;51.146;6.576;2022-07-23T18:30:46;4.13;;;1.65;;